EHKV

K14-fa-1c Sea

K14-fa-1c Sea, The Netherlands
METAR EHKV 251725Z AUTO 22022KT 9999 NSC 09/06 Q1009 W///H///
Observed Flight Rules
Apr-25 @ 17:25 UTC (43 minutes ago) Visual Flight Rules
Wind Visibility Clouds
220° at 22 knots 10,000+ meters
  • Clear skies
Temperatures Readings
Current 9°C / 48°F
Dewpoint 6°C / 43°F
Humidity 82%
Altimeter 29.79" Hg
Pressure 1009 hPa
Elevation 50
METAR EHKV 251725Z AUTO 22022KT 9999 NSC 09/06 Q1009 W///H///
Observed Flight Rules
Apr-25 @ 17:25 UTC
(43 minutes ago)
VFR
Wind Visibility
220° at 22 knots 10,000+ meters
Clouds
  • Clear skies
Temperature Dewpoint
9°C / 48°F 6°C / 43°F
Humidity Altimeter Pressure
82% 29.79" Hg 1009 hPa